createdAt,value
2017-01-21T00:01:08.592Z,0
2017-01-21T00:02:18.951Z,0
2017-01-21T00:03:29.200Z,0
2017-01-21T00:04:38.458Z,0
2017-01-21T00:05:47.991Z,0
2017-01-21T00:06:57.810Z,0
2017-01-21T00:08:07.133Z,0
2017-01-21T00:09:16.414Z,0
2017-01-21T00:10:26.699Z,0
2017-01-21T00:11:35.876Z,0
2017-01-21T00:12:44.833Z,0
2017-01-21T00:13:53.797Z,0
2017-01-21T00:15:02.754Z,0
2017-01-21T00:16:11.716Z,0
2017-01-21T00:17:20.678Z,0
2017-01-21T00:18:29.637Z,0
2017-01-21T00:19:38.594Z,0
2017-01-21T00:20:47.556Z,0
2017-01-21T00:21:56.519Z,0
2017-01-21T00:23:05.502Z,0
2017-01-21T00:24:14.464Z,0
2017-01-21T00:25:23.414Z,0
2017-01-21T00:26:32.372Z,0
2017-01-21T00:27:41.334Z,0
2017-01-21T00:28:50.293Z,0
2017-01-21T00:29:59.340Z,0
2017-01-21T00:31:08.304Z,0
2017-01-21T00:32:17.283Z,0
2017-01-21T00:33:26.246Z,0
2017-01-21T00:34:35.202Z,0
2017-01-21T00:35:44.168Z,0
2017-01-21T00:36:53.127Z,0
2017-01-21T00:38:02.090Z,0
2017-01-21T00:39:11.063Z,0
2017-01-21T00:40:20.018Z,0
2017-01-21T00:41:28.981Z,0
2017-01-21T00:42:37.934Z,0
2017-01-21T00:43:46.981Z,0
2017-01-21T00:44:55.936Z,0
2017-01-21T00:46:04.891Z,0
2017-01-21T00:47:13.848Z,0
2017-01-21T00:48:22.810Z,0
2017-01-21T00:49:31.765Z,0
2017-01-21T00:50:40.728Z,0
2017-01-21T00:51:49.686Z,0
2017-01-21T00:52:58.642Z,0
2017-01-21T00:54:07.601Z,0
2017-01-21T00:55:16.565Z,0
2017-01-21T00:56:25.516Z,0
2017-01-21T00:57:34.479Z,0
2017-01-21T00:58:43.437Z,0
2017-01-21T00:59:52.395Z,0
2017-01-21T01:01:01.352Z,0
2017-01-21T01:02:10.309Z,0
2017-01-21T01:03:19.266Z,0
2017-01-21T01:04:28.217Z,0
2017-01-21T01:05:37.176Z,0
2017-01-21T01:06:46.137Z,0
2017-01-21T01:07:55.096Z,0
2017-01-21T01:09:04.143Z,0
2017-01-21T01:10:13.213Z,0
2017-01-21T01:11:22.168Z,0
2017-01-21T01:12:31.123Z,0
2017-01-21T01:13:40.077Z,0
2017-01-21T01:14:49.047Z,0
2017-01-21T01:15:58.001Z,0
2017-01-21T01:17:07.046Z,0
2017-01-21T01:18:16.010Z,0
2017-01-21T01:19:25.996Z,0
2017-01-21T01:20:35.567Z,0
2017-01-21T01:21:44.529Z,0
2017-01-21T01:22:53.488Z,0
2017-01-21T01:24:02.453Z,0
2017-01-21T01:25:11.427Z,0
2017-01-21T01:26:20.384Z,0
2017-01-21T01:27:29.885Z,0
2017-01-21T01:28:39.451Z,0
2017-01-21T01:29:49.030Z,0
2017-01-21T01:30:59.271Z,0
2017-01-21T01:32:08.761Z,0
2017-01-21T01:33:18.387Z,0
2017-01-21T01:34:28.247Z,0
2017-01-21T01:35:37.992Z,0
2017-01-21T01:36:47.693Z,0
2017-01-21T01:37:56.928Z,0
2017-01-21T01:39:06.585Z,0
2017-01-21T01:40:15.573Z,0
2017-01-21T01:41:24.720Z,0
2017-01-21T01:42:33.700Z,0
2017-01-21T01:43:42.659Z,0
2017-01-21T01:44:51.700Z,0
2017-01-21T01:46:00.661Z,0
2017-01-21T01:47:11.730Z,0
2017-01-21T01:48:22.885Z,0
2017-01-21T01:49:32.606Z,0
2017-01-21T01:50:43.236Z,0
2017-01-21T01:51:52.209Z,0
2017-01-21T01:53:04.999Z,0
2017-01-21T01:54:17.566Z,0
2017-01-21T01:55:27.533Z,0
2017-01-21T01:56:39.421Z,0
2017-01-21T01:57:49.547Z,0
2017-01-21T01:59:01.643Z,0
2017-01-21T02:00:14.461Z,0
2017-01-21T02:01:26.211Z,0
2017-01-21T02:02:40.402Z,0
2017-01-21T02:03:52.327Z,0
2017-01-21T02:05:03.033Z,0
2017-01-21T02:06:16.820Z,0
2017-01-21T02:07:29.830Z,0
2017-01-21T02:08:40.493Z,0
2017-01-21T02:09:53.989Z,0
2017-01-21T02:11:10.128Z,0
2017-01-21T02:12:23.793Z,0
2017-01-21T02:13:36.375Z,0
2017-01-21T02:14:51.053Z,0
2017-01-21T02:16:03.691Z,0
2017-01-21T02:17:19.188Z,0
2017-01-21T02:18:35.193Z,0
2017-01-21T02:19:48.841Z,0
2017-01-21T02:21:01.547Z,0
2017-01-21T02:22:14.026Z,0
2017-01-21T02:23:27.627Z,0
2017-01-21T02:24:37.089Z,0
2017-01-21T02:25:46.181Z,0
2017-01-21T02:26:55.143Z,0
2017-01-21T02:28:04.136Z,0
2017-01-21T02:29:13.088Z,0
2017-01-21T02:30:22.048Z,0
2017-01-21T02:31:31.094Z,0
2017-01-21T02:32:40.176Z,0
2017-01-21T02:33:49.135Z,0
2017-01-21T02:34:58.096Z,0
2017-01-21T02:36:07.063Z,0
2017-01-21T02:37:16.027Z,0
2017-01-21T02:38:24.988Z,0
2017-01-21T02:39:33.951Z,0
2017-01-21T02:40:42.905Z,0
2017-01-21T02:41:51.868Z,0
2017-01-21T02:43:00.828Z,0
2017-01-21T02:44:09.879Z,0
2017-01-21T02:45:18.836Z,0
2017-01-21T02:46:27.789Z,0
2017-01-21T02:47:36.750Z,0
2017-01-21T02:48:45.707Z,0
2017-01-21T02:49:54.674Z,0
2017-01-21T02:51:03.634Z,0
2017-01-21T02:52:12.593Z,0
2017-01-21T02:53:21.548Z,0
2017-01-21T02:54:30.510Z,0
2017-01-21T02:55:39.491Z,0
2017-01-21T02:56:48.449Z,0
2017-01-21T02:57:57.412Z,0
2017-01-21T02:59:06.366Z,0
2017-01-21T03:00:15.330Z,0
2017-01-21T03:01:24.286Z,0
2017-01-21T03:02:33.246Z,0
2017-01-21T03:03:42.200Z,0
2017-01-21T03:04:51.158Z,0
2017-01-21T03:06:00.120Z,0
2017-01-21T03:07:09.107Z,0
2017-01-21T03:08:18.063Z,0
2017-01-21T03:09:27.021Z,0
2017-01-21T03:10:35.978Z,0
2017-01-21T03:11:44.933Z,0
2017-01-21T03:12:53.890Z,0
2017-01-21T03:14:02.847Z,0
2017-01-21T03:15:11.810Z,0
2017-01-21T03:16:20.766Z,0
2017-01-21T03:17:29.715Z,0
2017-01-21T03:18:38.670Z,0
2017-01-21T03:19:47.631Z,0
2017-01-21T03:20:56.588Z,0
2017-01-21T03:22:05.545Z,0
2017-01-21T03:23:14.498Z,0
2017-01-21T03:24:23.456Z,0
2017-01-21T03:25:32.443Z,0
2017-01-21T03:26:41.486Z,0
2017-01-21T03:27:50.446Z,0
2017-01-21T03:28:59.410Z,0
2017-01-21T03:30:08.373Z,0
2017-01-21T03:31:17.416Z,0
2017-01-21T03:32:26.370Z,0
2017-01-21T03:33:35.330Z,0
2017-01-21T03:34:44.387Z,0
2017-01-21T03:35:53.348Z,0
2017-01-21T03:37:02.301Z,0
2017-01-21T03:38:11.255Z,0
2017-01-21T03:39:20.232Z,0
2017-01-21T03:40:29.193Z,0
2017-01-21T03:41:38.148Z,0
2017-01-21T03:42:47.189Z,0
2017-01-21T03:43:56.150Z,0
2017-01-21T03:45:05.110Z,0
2017-01-21T03:46:14.066Z,0
2017-01-21T03:47:23.024Z,0
2017-01-21T03:48:31.979Z,0
2017-01-21T03:49:40.936Z,0
2017-01-21T03:50:50.301Z,0
2017-01-21T03:51:59.257Z,0
2017-01-21T03:53:08.218Z,0
2017-01-21T03:54:17.177Z,0
2017-01-21T03:55:26.133Z,0
2017-01-21T03:56:35.176Z,0
2017-01-21T03:57:44.137Z,0
2017-01-21T03:58:53.121Z,0
2017-01-21T04:00:02.079Z,0
2017-01-21T04:01:11.041Z,0
2017-01-21T04:02:20.000Z,0
2017-01-21T04:03:28.958Z,0
2017-01-21T04:04:37.920Z,0
2017-01-21T04:05:46.882Z,0
2017-01-21T04:06:55.846Z,0
2017-01-21T04:08:04.808Z,0
2017-01-21T04:09:13.773Z,0
2017-01-21T04:10:22.729Z,0
2017-01-21T04:11:31.772Z,0
2017-01-21T04:12:40.734Z,0
2017-01-21T04:13:49.693Z,0
2017-01-21T04:14:58.644Z,0
2017-01-21T04:16:07.605Z,0
2017-01-21T04:17:16.556Z,0
2017-01-21T04:18:25.512Z,0
2017-01-21T04:19:34.470Z,0
2017-01-21T04:20:43.428Z,0
2017-01-21T04:21:52.378Z,0
2017-01-21T04:23:01.344Z,0
2017-01-21T04:24:10.296Z,0
2017-01-21T04:25:19.258Z,0
2017-01-21T04:26:28.214Z,0
2017-01-21T04:27:37.174Z,0
2017-01-21T04:28:46.217Z,0
2017-01-21T04:29:55.174Z,0
2017-01-21T04:31:04.133Z,0
2017-01-21T04:32:13.117Z,0
2017-01-21T04:33:22.073Z,0
2017-01-21T04:34:31.117Z,0
2017-01-21T04:35:40.073Z,0
2017-01-21T04:36:49.026Z,0
2017-01-21T04:37:57.980Z,0
2017-01-21T04:39:06.940Z,0
2017-01-21T04:40:15.897Z,0
2017-01-21T04:41:24.856Z,0
2017-01-21T04:42:33.817Z,0
2017-01-21T04:43:42.794Z,0
2017-01-21T04:44:51.749Z,0
2017-01-21T04:46:00.705Z,0
2017-01-21T04:47:09.665Z,0
2017-01-21T04:48:18.638Z,0
2017-01-21T04:49:27.684Z,0
2017-01-21T04:50:36.641Z,0
2017-01-21T04:51:45.595Z,0
2017-01-21T04:52:54.560Z,0
2017-01-21T04:54:03.515Z,0
2017-01-21T04:55:12.480Z,0
2017-01-21T04:56:21.434Z,0
2017-01-21T04:57:30.390Z,0
2017-01-21T04:58:39.351Z,0
2017-01-21T04:59:48.318Z,0
2017-01-21T05:00:57.360Z,0
2017-01-21T05:02:06.311Z,0
2017-01-21T05:03:15.356Z,0
2017-01-21T05:04:24.319Z,0
2017-01-21T05:05:33.297Z,0
2017-01-21T05:06:42.258Z,0
2017-01-21T05:07:51.265Z,0
2017-01-21T05:09:00.221Z,0
2017-01-21T05:10:09.178Z,0
2017-01-21T05:11:18.132Z,0
2017-01-21T05:12:27.093Z,0
2017-01-21T05:13:36.054Z,0
2017-01-21T05:14:45.012Z,0
2017-01-21T05:15:54.057Z,0
2017-01-21T05:17:03.013Z,0
2017-01-21T05:18:11.977Z,0
2017-01-21T05:19:20.928Z,0
2017-01-21T05:20:29.890Z,0
2017-01-21T05:21:38.850Z,0
2017-01-21T05:22:47.808Z,0
2017-01-21T05:23:56.771Z,0
2017-01-21T05:25:05.729Z,0
2017-01-21T05:26:14.687Z,0
2017-01-21T05:27:23.767Z,0
2017-01-21T05:28:32.731Z,0
2017-01-21T05:29:41.691Z,0
2017-01-21T05:30:50.651Z,0
2017-01-21T05:31:59.609Z,0
2017-01-21T05:33:08.575Z,0
2017-01-21T05:34:17.534Z,0
2017-01-21T05:35:26.500Z,0
2017-01-21T05:36:35.471Z,0
2017-01-21T05:37:44.425Z,0
2017-01-21T05:38:53.471Z,0
2017-01-21T05:40:02.426Z,0
2017-01-21T05:41:11.389Z,0
2017-01-21T05:42:20.348Z,0
2017-01-21T05:43:29.306Z,0
2017-01-21T05:44:38.264Z,0
2017-01-21T05:45:47.223Z,0
2017-01-21T05:46:56.189Z,0
2017-01-21T05:48:05.149Z,0
2017-01-21T05:49:14.112Z,0
2017-01-21T05:50:23.067Z,0
2017-01-21T05:51:32.034Z,0
2017-01-21T05:52:40.988Z,0
2017-01-21T05:53:49.950Z,0
2017-01-21T05:54:58.906Z,0
2017-01-21T05:56:08.275Z,0
2017-01-21T05:57:17.316Z,0
2017-01-21T05:58:26.275Z,0
2017-01-21T05:59:35.234Z,0
2017-01-21T06:00:44.190Z,0
2017-01-21T06:01:53.150Z,0
2017-01-21T06:03:02.109Z,0
2017-01-21T06:04:11.070Z,0
2017-01-21T06:05:20.117Z,0
2017-01-21T06:06:29.074Z,0
2017-01-21T06:07:38.030Z,0
2017-01-21T06:08:46.991Z,0
2017-01-21T06:09:55.948Z,0
2017-01-21T06:11:04.902Z,0
2017-01-21T06:12:13.858Z,0
2017-01-21T06:13:22.812Z,0
2017-01-21T06:14:31.791Z,0
2017-01-21T06:15:40.749Z,0
2017-01-21T06:16:49.710Z,0
2017-01-21T06:17:58.750Z,0
2017-01-21T06:19:07.729Z,0
2017-01-21T06:20:16.687Z,0
2017-01-21T06:21:25.730Z,0
2017-01-21T06:22:34.692Z,0
2017-01-21T06:23:43.647Z,0
2017-01-21T06:24:52.604Z,0
2017-01-21T06:26:01.562Z,0
2017-01-21T06:27:10.603Z,0
2017-01-21T06:28:19.564Z,0
2017-01-21T06:29:28.527Z,0
2017-01-21T06:30:37.493Z,0
2017-01-21T06:31:46.452Z,0
2017-01-21T06:32:55.406Z,0
2017-01-21T06:34:04.363Z,0
2017-01-21T06:35:13.316Z,0
2017-01-21T06:36:22.281Z,0
2017-01-21T06:37:31.245Z,4
2017-01-21T06:38:40.200Z,0
2017-01-21T06:39:49.247Z,0
2017-01-21T06:40:58.212Z,0
2017-01-21T06:42:07.168Z,4
2017-01-21T06:43:16.132Z,4
2017-01-21T06:44:25.099Z,4
2017-01-21T06:45:34.052Z,4
2017-01-21T06:46:43.009Z,4
2017-01-21T06:47:51.966Z,8
2017-01-21T06:49:00.921Z,8
2017-01-21T06:50:09.874Z,4
2017-01-21T06:51:18.828Z,8
2017-01-21T06:52:27.781Z,8
2017-01-21T06:53:36.738Z,12
2017-01-21T06:54:45.692Z,8
2017-01-21T06:55:54.656Z,12
2017-01-21T06:57:03.614Z,16
2017-01-21T06:58:12.574Z,16
2017-01-21T06:59:21.541Z,20
2017-01-21T07:00:30.497Z,24
2017-01-21T07:01:39.455Z,20
2017-01-21T07:02:48.408Z,28
2017-01-21T07:03:57.363Z,28
2017-01-21T07:05:06.325Z,32
2017-01-21T07:06:15.279Z,32
2017-01-21T07:07:24.233Z,36
2017-01-21T07:08:33.188Z,36
2017-01-21T07:09:42.238Z,40
2017-01-21T07:10:51.194Z,44
2017-01-21T07:12:00.158Z,48
2017-01-21T07:13:09.116Z,48
2017-01-21T07:14:18.069Z,56
2017-01-21T07:15:27.026Z,56
2017-01-21T07:16:35.981Z,64
2017-01-21T07:17:44.938Z,60
2017-01-21T07:18:53.897Z,68
2017-01-21T07:20:02.858Z,68
2017-01-21T07:21:11.812Z,72
2017-01-21T07:22:20.766Z,72
2017-01-21T07:23:29.730Z,76
2017-01-21T07:24:38.681Z,88
2017-01-21T07:25:47.642Z,88
2017-01-21T07:26:56.598Z,96
2017-01-21T07:28:05.583Z,100
2017-01-21T07:29:14.541Z,100
2017-01-21T07:30:23.904Z,116
2017-01-21T07:31:32.864Z,116
2017-01-21T07:32:41.818Z,124
2017-01-21T07:33:50.774Z,128
2017-01-21T07:34:59.749Z,124
2017-01-21T07:36:08.707Z,124
2017-01-21T07:37:17.663Z,128
2017-01-21T07:38:26.619Z,140
2017-01-21T07:39:35.575Z,152
2017-01-21T07:40:44.539Z,156
2017-01-21T07:41:53.524Z,180
2017-01-21T07:43:02.475Z,192
2017-01-21T07:44:11.436Z,192
2017-01-21T07:45:20.402Z,192
2017-01-21T07:46:29.361Z,208
2017-01-21T07:47:38.320Z,216
2017-01-21T07:48:47.283Z,224
2017-01-21T07:49:56.244Z,224
2017-01-21T07:51:05.203Z,208
2017-01-21T07:52:14.164Z,232
2017-01-21T07:53:23.125Z,228
2017-01-21T07:54:32.081Z,252
2017-01-21T07:55:41.037Z,236
2017-01-21T07:56:50.082Z,244
2017-01-21T07:57:59.038Z,252
2017-01-21T07:59:08.001Z,248
2017-01-21T08:00:17.050Z,268
2017-01-21T08:01:26.008Z,268
2017-01-21T08:02:34.972Z,276
2017-01-21T08:03:43.926Z,296
2017-01-21T08:04:52.884Z,324
2017-01-21T08:06:01.855Z,324
2017-01-21T08:07:10.901Z,308
2017-01-21T08:08:19.862Z,316
2017-01-21T08:09:28.824Z,304
2017-01-21T08:10:37.786Z,328
2017-01-21T08:11:46.766Z,356
2017-01-21T08:12:55.722Z,376
2017-01-21T08:14:04.682Z,420
2017-01-21T08:15:13.645Z,456
2017-01-21T08:16:22.629Z,476
2017-01-21T08:17:31.675Z,504
2017-01-21T08:18:40.636Z,508
2017-01-21T08:19:49.596Z,492
2017-01-21T08:20:58.552Z,516
2017-01-21T08:22:07.512Z,496
2017-01-21T08:23:16.465Z,488
2017-01-21T08:24:25.429Z,460
2017-01-21T08:25:34.384Z,472
2017-01-21T08:26:43.378Z,476
2017-01-21T08:27:52.340Z,488
2017-01-21T08:29:01.298Z,512
2017-01-21T08:30:10.254Z,476
2017-01-21T08:31:19.215Z,508
2017-01-21T08:32:28.171Z,508
2017-01-21T08:33:37.131Z,524
2017-01-21T08:34:46.091Z,552
2017-01-21T08:35:55.051Z,532
2017-01-21T08:37:04.016Z,520
2017-01-21T08:38:12.969Z,536
2017-01-21T08:39:21.952Z,592
2017-01-21T08:40:30.913Z,620
2017-01-21T08:41:39.882Z,644
2017-01-21T08:42:48.831Z,656
2017-01-21T08:43:57.793Z,652
2017-01-21T08:45:06.750Z,668
2017-01-21T08:46:15.708Z,684
2017-01-21T08:47:24.667Z,708
2017-01-21T08:48:33.637Z,720
2017-01-21T08:49:42.601Z,680
2017-01-21T08:50:51.559Z,688
2017-01-21T08:52:00.515Z,704
2017-01-21T08:53:09.477Z,728
2017-01-21T08:54:18.525Z,680
2017-01-21T08:55:27.481Z,696
2017-01-21T08:56:36.437Z,708
2017-01-21T08:57:45.397Z,732
2017-01-21T08:58:54.353Z,724
2017-01-21T09:00:03.392Z,688
2017-01-21T09:01:12.348Z,652
2017-01-21T09:02:21.330Z,640
2017-01-21T09:03:30.297Z,608
2017-01-21T09:04:39.251Z,664
2017-01-21T09:05:48.213Z,684
2017-01-21T09:06:57.259Z,716
2017-01-21T09:08:06.217Z,708
2017-01-21T09:09:15.198Z,748
2017-01-21T09:10:24.249Z,736
2017-01-21T09:11:33.259Z,668
2017-01-21T09:12:42.213Z,672
2017-01-21T09:13:51.181Z,732
2017-01-21T09:15:00.139Z,712
2017-01-21T09:16:09.095Z,760
2017-01-21T09:17:18.137Z,752
2017-01-21T09:18:27.095Z,776
2017-01-21T09:19:36.059Z,780
2017-01-21T09:20:45.021Z,808
2017-01-21T09:21:53.985Z,816
2017-01-21T09:23:02.942Z,768
2017-01-21T09:24:11.903Z,804
2017-01-21T09:25:20.862Z,768
2017-01-21T09:26:29.820Z,768
2017-01-21T09:27:38.782Z,740
2017-01-21T09:28:47.739Z,868
2017-01-21T09:29:56.791Z,772
2017-01-21T09:31:05.751Z,860
2017-01-21T09:32:14.709Z,884
2017-01-21T09:33:23.674Z,880
2017-01-21T09:34:32.637Z,888
2017-01-21T09:35:41.592Z,888
2017-01-21T09:36:50.550Z,904
2017-01-21T09:38:00.137Z,968
2017-01-21T09:39:09.173Z,952
2017-01-21T09:40:18.150Z,912
2017-01-21T09:41:27.113Z,948
2017-01-21T09:42:36.073Z,972
2017-01-21T09:43:45.042Z,976
2017-01-21T09:44:53.998Z,960
2017-01-21T09:46:02.952Z,1056
2017-01-21T09:47:11.907Z,980
2017-01-21T09:48:20.866Z,992
2017-01-21T09:49:29.818Z,992
2017-01-21T09:50:38.771Z,1088
2017-01-21T09:51:47.727Z,1076
2017-01-21T09:52:56.684Z,1080
2017-01-21T09:54:05.645Z,1144
2017-01-21T09:55:14.600Z,1112
2017-01-21T09:56:23.559Z,1216
2017-01-21T09:57:32.518Z,1212
2017-01-21T09:58:41.477Z,1280
2017-01-21T09:59:50.464Z,1264
2017-01-21T10:00:59.449Z,1228
2017-01-21T10:02:08.409Z,1216
2017-01-21T10:03:17.369Z,1252
2017-01-21T10:04:26.325Z,1220
2017-01-21T10:05:36.172Z,1220
2017-01-21T10:06:47.167Z,1292
2017-01-21T10:07:56.257Z,1332
2017-01-21T10:09:05.218Z,1324
2017-01-21T10:10:14.177Z,1336
2017-01-21T10:11:23.130Z,1220
2017-01-21T10:12:32.090Z,1276
2017-01-21T10:13:41.047Z,1240
2017-01-21T10:14:50.004Z,1204
2017-01-21T10:15:59.059Z,1236
2017-01-21T10:17:08.024Z,1252
2017-01-21T10:18:16.981Z,1220
2017-01-21T10:19:25.941Z,1312
2017-01-21T10:20:34.893Z,1336
2017-01-21T10:21:43.856Z,1372
2017-01-21T10:22:52.820Z,1396
2017-01-21T10:24:01.780Z,1436
2017-01-21T10:25:10.830Z,1412
2017-01-21T10:26:19.790Z,1352
2017-01-21T10:27:28.748Z,1388
2017-01-21T10:28:37.708Z,1384
2017-01-21T10:29:46.667Z,1392
2017-01-21T10:30:55.628Z,1372
2017-01-21T10:32:05.062Z,1348
2017-01-21T10:33:14.597Z,1348
2017-01-21T10:34:25.672Z,1392
2017-01-21T10:35:36.368Z,1384
2017-01-21T10:36:46.328Z,1328
2017-01-21T10:37:56.116Z,1296
2017-01-21T10:39:06.020Z,1292
2017-01-21T10:40:15.348Z,1280
2017-01-21T10:41:25.270Z,1316
2017-01-21T10:42:35.394Z,1216
2017-01-21T10:43:45.273Z,1244
2017-01-21T10:44:55.226Z,1244
2017-01-21T10:46:05.792Z,1196
2017-01-21T10:47:15.817Z,1312
2017-01-21T10:48:25.518Z,1352
2017-01-21T10:49:35.813Z,1396
2017-01-21T10:50:45.398Z,1260
2017-01-21T10:51:54.591Z,1244
2017-01-21T10:53:04.424Z,1252
2017-01-21T10:54:14.358Z,1336
2017-01-21T10:55:24.065Z,1352
2017-01-21T10:56:33.836Z,1356
2017-01-21T10:57:44.129Z,1404
2017-01-21T10:58:54.387Z,1340
2017-01-21T11:00:04.953Z,1332
2017-01-21T11:01:15.261Z,1400
2017-01-21T11:02:25.837Z,1336
2017-01-21T11:03:35.726Z,1304
2017-01-21T11:04:45.010Z,1300
2017-01-21T11:05:55.421Z,1392
2017-01-21T11:07:05.049Z,1444
2017-01-21T11:08:14.582Z,1404
2017-01-21T11:09:23.965Z,1440
2017-01-21T11:10:32.931Z,1444
2017-01-21T11:11:42.492Z,1392
2017-01-21T11:12:51.916Z,1392
2017-01-21T11:14:01.353Z,1424
2017-01-21T11:15:10.699Z,1388
2017-01-21T11:16:20.203Z,1400
2017-01-21T11:17:29.811Z,1372
2017-01-21T11:18:39.855Z,1392
2017-01-21T11:19:49.506Z,1436
2017-01-21T11:20:59.488Z,1420
2017-01-21T11:22:09.404Z,1404
2017-01-21T11:23:19.649Z,1360
2017-01-21T11:24:29.564Z,1388
2017-01-21T11:25:40.372Z,1312
2017-01-21T11:26:50.569Z,1396
2017-01-21T11:28:01.170Z,1444
2017-01-21T11:29:10.475Z,1488
2017-01-21T11:30:20.655Z,1540
2017-01-21T11:31:30.453Z,1564
2017-01-21T11:32:40.422Z,1572
2017-01-21T11:33:50.308Z,1588
2017-01-21T11:34:59.355Z,1516
2017-01-21T11:36:08.319Z,1500
2017-01-21T11:37:17.627Z,1504
2017-01-21T11:38:27.500Z,1600
2017-01-21T11:39:37.067Z,1592
2017-01-21T11:40:47.492Z,1624
2017-01-21T11:41:56.820Z,1664
2017-01-21T11:43:06.392Z,1620
2017-01-21T11:44:16.025Z,1560
2017-01-21T11:45:25.944Z,1500
2017-01-21T11:46:35.272Z,1484
2017-01-21T11:47:44.239Z,1440
2017-01-21T11:48:53.541Z,1440
2017-01-21T11:50:02.750Z,1564
2017-01-21T11:51:12.438Z,1564
2017-01-21T11:52:22.169Z,1556
2017-01-21T11:53:31.724Z,1536
2017-01-21T11:54:43.177Z,1508
2017-01-21T11:56:01.327Z,1476
2017-01-21T11:57:19.043Z,1420
2017-01-21T11:58:29.127Z,1356
2017-01-21T11:59:38.503Z,1272
2017-01-21T12:00:48.271Z,1308
2017-01-21T12:01:57.434Z,1292
2017-01-21T12:03:06.601Z,1288
2017-01-21T12:04:15.880Z,1232
2017-01-21T12:05:25.216Z,1240
2017-01-21T12:06:34.263Z,1356
2017-01-21T12:07:43.318Z,1408
2017-01-21T12:08:52.652Z,1380
2017-01-21T12:10:02.052Z,1384
2017-01-21T12:11:11.338Z,1376
2017-01-21T12:12:20.945Z,1400
2017-01-21T12:13:29.900Z,1448
2017-01-21T12:14:38.863Z,1384
2017-01-21T12:15:48.901Z,1444
2017-01-21T12:16:58.023Z,1356
2017-01-21T12:18:08.067Z,1260
2017-01-21T12:19:18.015Z,1360
2017-01-21T12:20:27.449Z,1324
2017-01-21T12:21:37.608Z,1268
2017-01-21T12:22:47.294Z,1340
2017-01-21T12:23:57.443Z,1264
2017-01-21T12:25:07.673Z,1364
2017-01-21T12:26:17.620Z,1364
2017-01-21T12:27:27.573Z,1356
2017-01-21T12:28:37.447Z,1368
2017-01-21T12:29:47.065Z,1388
2017-01-21T12:30:57.094Z,1348
2017-01-21T12:32:07.433Z,1332
2017-01-21T12:33:18.110Z,1368
2017-01-21T12:34:28.226Z,1356
2017-01-21T12:35:45.100Z,1272
2017-01-21T12:36:58.139Z,1200
2017-01-21T12:38:07.709Z,1236
2017-01-21T12:39:16.667Z,1228
2017-01-21T12:40:25.620Z,1204
2017-01-21T12:41:34.577Z,1084
2017-01-21T12:42:43.618Z,1096
2017-01-21T12:43:52.580Z,1240
2017-01-21T12:45:01.545Z,1080
2017-01-21T12:46:10.501Z,992
2017-01-21T12:47:19.458Z,984
2017-01-21T12:48:28.426Z,936
2017-01-21T12:49:37.391Z,984
2017-01-21T12:50:46.348Z,1060
2017-01-21T12:51:55.304Z,1128
2017-01-21T12:53:04.271Z,1148
2017-01-21T12:54:13.314Z,1128
2017-01-21T12:55:22.294Z,1060
2017-01-21T12:56:32.402Z,1028
2017-01-21T12:57:42.028Z,1024
2017-01-21T12:58:52.005Z,1052
2017-01-21T13:00:01.645Z,1000
2017-01-21T13:01:10.608Z,948
2017-01-21T13:02:19.578Z,936
2017-01-21T13:03:28.560Z,936
2017-01-21T13:04:37.547Z,988
2017-01-21T13:05:46.629Z,1064
2017-01-21T13:06:56.580Z,1056
2017-01-21T13:08:06.533Z,1016
2017-01-21T13:09:15.659Z,960
2017-01-21T13:10:25.418Z,880
2017-01-21T13:11:35.091Z,832
2017-01-21T13:12:45.206Z,840
2017-01-21T13:13:55.809Z,852
2017-01-21T13:15:05.646Z,848
2017-01-21T13:16:16.266Z,884
2017-01-21T13:17:27.421Z,872
2017-01-21T13:18:38.406Z,860
2017-01-21T13:19:48.025Z,812
2017-01-21T13:20:58.561Z,796
2017-01-21T13:22:09.169Z,784
2017-01-21T13:23:23.043Z,768
2017-01-21T13:24:33.714Z,772
2017-01-21T13:25:42.693Z,764
2017-01-21T13:26:51.661Z,772
2017-01-21T13:28:00.690Z,752
2017-01-21T13:29:09.651Z,736
2017-01-21T13:30:18.615Z,736
2017-01-21T13:31:27.765Z,724
2017-01-21T13:32:38.229Z,712
2017-01-21T13:33:49.161Z,716
2017-01-21T13:35:01.850Z,708
2017-01-21T13:36:12.822Z,672
2017-01-21T13:37:22.299Z,660
2017-01-21T13:38:33.296Z,700
2017-01-21T13:39:43.018Z,696
2017-01-21T13:40:53.230Z,664
2017-01-21T13:42:05.035Z,624
2017-01-21T13:43:16.879Z,616
2017-01-21T13:44:26.095Z,616
2017-01-21T13:45:35.440Z,604
2017-01-21T13:46:50.176Z,580
2017-01-21T13:48:00.075Z,548
2017-01-21T13:49:09.052Z,516
2017-01-21T13:50:18.167Z,496
2017-01-21T13:51:27.182Z,492
2017-01-21T13:52:36.226Z,508
2017-01-21T13:53:45.425Z,500
2017-01-21T13:54:54.474Z,504
2017-01-21T13:56:03.514Z,528
2017-01-21T13:57:12.496Z,552
2017-01-21T13:58:22.372Z,548
2017-01-21T13:59:32.150Z,536
2017-01-21T14:00:41.836Z,540
2017-01-21T14:01:52.221Z,552
2017-01-21T14:03:02.772Z,516
2017-01-21T14:04:12.128Z,480
2017-01-21T14:05:21.712Z,460
2017-01-21T14:06:31.113Z,464
2017-01-21T14:07:41.237Z,492
2017-01-21T14:08:51.099Z,532
2017-01-21T14:10:00.972Z,528
2017-01-21T14:11:09.937Z,520
2017-01-21T14:12:19.450Z,536
2017-01-21T14:13:29.093Z,544
2017-01-21T14:14:38.652Z,536
2017-01-21T14:15:47.609Z,516
2017-01-21T14:16:56.567Z,496
2017-01-21T14:18:05.544Z,464
2017-01-21T14:19:14.501Z,468
2017-01-21T14:20:23.454Z,464
2017-01-21T14:21:32.420Z,460
2017-01-21T14:22:41.379Z,444
2017-01-21T14:23:50.335Z,428
2017-01-21T14:24:59.305Z,424
2017-01-21T14:26:08.265Z,428
2017-01-21T14:27:17.215Z,436
2017-01-21T14:28:26.169Z,436
2017-01-21T14:29:35.133Z,436
2017-01-21T14:30:44.102Z,420
2017-01-21T14:31:53.086Z,396
2017-01-21T14:33:02.041Z,344
2017-01-21T14:34:10.996Z,312
2017-01-21T14:35:19.954Z,308
2017-01-21T14:36:28.912Z,324
2017-01-21T14:37:37.874Z,324
2017-01-21T14:38:46.836Z,304
2017-01-21T14:39:55.885Z,288
2017-01-21T14:41:05.311Z,280
2017-01-21T14:42:14.978Z,264
2017-01-21T14:43:23.935Z,252
2017-01-21T14:44:36.351Z,252
2017-01-21T14:45:47.587Z,252
2017-01-21T14:46:58.271Z,244
2017-01-21T14:48:09.408Z,232
2017-01-21T14:49:20.149Z,212
2017-01-21T14:50:30.727Z,200
2017-01-21T14:51:41.246Z,188
2017-01-21T14:52:52.166Z,180
2017-01-21T14:54:02.859Z,176
2017-01-21T14:55:13.559Z,180
2017-01-21T14:56:24.563Z,188
2017-01-21T14:57:35.418Z,180
2017-01-21T14:58:45.604Z,168
2017-01-21T14:59:57.140Z,144
2017-01-21T15:01:07.713Z,124
2017-01-21T15:02:17.837Z,116
2017-01-21T15:03:27.743Z,116
2017-01-21T15:04:37.641Z,116
2017-01-21T15:05:46.687Z,124
2017-01-21T15:06:55.647Z,116
2017-01-21T15:08:04.608Z,112
2017-01-21T15:09:13.569Z,104
2017-01-21T15:10:22.525Z,104
2017-01-21T15:11:31.491Z,100
2017-01-21T15:12:40.452Z,92
2017-01-21T15:13:49.415Z,88
2017-01-21T15:14:58.374Z,88
2017-01-21T15:16:07.359Z,84
2017-01-21T15:17:16.407Z,80
2017-01-21T15:18:25.364Z,76
2017-01-21T15:19:34.325Z,68
2017-01-21T15:20:43.280Z,60
2017-01-21T15:21:52.384Z,60
2017-01-21T15:23:01.349Z,56
2017-01-21T15:24:10.328Z,52
2017-01-21T15:25:19.381Z,48
2017-01-21T15:26:28.341Z,48
2017-01-21T15:27:37.290Z,44
2017-01-21T15:28:46.252Z,40
2017-01-21T15:29:55.208Z,40
2017-01-21T15:31:04.163Z,36
2017-01-21T15:32:13.137Z,32
2017-01-21T15:33:22.089Z,32
2017-01-21T15:34:31.053Z,32
2017-01-21T15:35:40.006Z,24
2017-01-21T15:36:48.963Z,24
2017-01-21T15:37:57.916Z,24
2017-01-21T15:39:07.022Z,20
2017-01-21T15:40:16.078Z,16
2017-01-21T15:41:25.038Z,16
2017-01-21T15:42:33.993Z,16
2017-01-21T15:43:42.947Z,12
2017-01-21T15:44:51.908Z,12
2017-01-21T15:46:00.865Z,8
2017-01-21T15:47:09.824Z,8
2017-01-21T15:48:18.785Z,8
2017-01-21T15:49:27.736Z,8
2017-01-21T15:50:36.694Z,8
2017-01-21T15:51:45.652Z,4
2017-01-21T15:52:54.639Z,4
2017-01-21T15:54:03.599Z,4
2017-01-21T15:55:12.551Z,0
2017-01-21T15:56:21.508Z,4
2017-01-21T15:57:30.475Z,4
2017-01-21T15:58:39.431Z,0
2017-01-21T15:59:49.075Z,0
2017-01-21T16:00:59.214Z,4
2017-01-21T16:02:11.120Z,4
2017-01-21T16:03:23.644Z,0
2017-01-21T16:04:33.257Z,0
2017-01-21T16:05:42.575Z,0
2017-01-21T16:06:52.319Z,0
2017-01-21T16:08:02.084Z,0
2017-01-21T16:09:12.067Z,0
2017-01-21T16:10:21.842Z,0
2017-01-21T16:11:32.060Z,0
2017-01-21T16:12:41.013Z,0
2017-01-21T16:13:49.969Z,0
2017-01-21T16:14:58.948Z,0
2017-01-21T16:16:08.361Z,0
2017-01-21T16:17:17.330Z,0
2017-01-21T16:18:26.290Z,0
2017-01-21T16:19:35.247Z,0
2017-01-21T16:20:44.206Z,0
2017-01-21T16:21:53.166Z,0
2017-01-21T16:23:02.145Z,0